createdAt,value
2018-12-15T00:01:44.050Z,24.70
2018-12-15T00:04:15.004Z,25.00
2018-12-15T00:07:00.972Z,27.60
2018-12-15T00:09:30.064Z,25.60
2018-12-15T00:12:05.724Z,19.57
2018-12-15T00:14:34.699Z,19.57
2018-12-15T00:17:05.856Z,23.00
2018-12-15T00:19:34.753Z,24.93
2018-12-15T00:22:03.826Z,26.67
2018-12-15T00:24:32.846Z,18.00
2018-12-15T00:27:01.853Z,27.00
2018-12-15T00:29:31.869Z,16.53
2018-12-15T00:32:00.900Z,24.07
2018-12-15T00:34:29.920Z,26.77
2018-12-15T00:36:58.963Z,27.67
2018-12-15T00:39:28.954Z,18.07
2018-12-15T00:41:58.000Z,22.33
2018-12-15T00:44:26.966Z,16.83
2018-12-15T00:46:57.047Z,19.50
2018-12-15T00:49:26.014Z,22.13
2018-12-15T00:51:55.075Z,22.37
2018-12-15T00:54:24.165Z,22.00
2018-12-15T00:56:53.158Z,30.47
2018-12-15T00:59:22.201Z,25.53
2018-12-15T01:01:51.849Z,26.07
2018-12-15T01:04:20.831Z,30.33
2018-12-15T01:06:49.906Z,16.87
2018-12-15T01:09:19.096Z,21.73
2018-12-15T01:11:48.144Z,32.13
2018-12-15T01:14:17.178Z,27.17
2018-12-15T01:16:46.152Z,25.70
2018-12-15T01:19:15.081Z,22.93
2018-12-15T01:21:44.073Z,21.53
2018-12-15T01:24:13.083Z,23.73
2018-12-15T01:26:42.062Z,29.30
2018-12-15T01:29:11.069Z,25.17
2018-12-15T01:31:41.206Z,24.33
2018-12-15T01:34:10.336Z,30.37
2018-12-15T01:36:39.377Z,30.57
2018-12-15T01:39:08.965Z,22.07
2018-12-15T01:41:39.151Z,28.03
2018-12-15T01:44:08.215Z,26.20
2018-12-15T01:46:37.261Z,29.30
2018-12-15T01:49:06.294Z,29.17
2018-12-15T01:51:35.396Z,27.40
2018-12-15T01:54:04.609Z,25.23
2018-12-15T01:56:33.534Z,21.50
2018-12-15T01:59:02.539Z,28.13
2018-12-15T02:01:31.629Z,28.67
2018-12-15T02:04:00.622Z,22.50
2018-12-15T02:06:29.687Z,23.37
2018-12-15T02:08:58.750Z,29.27
2018-12-15T02:11:29.775Z,32.27
2018-12-15T02:13:58.816Z,28.93
2018-12-15T02:16:28.661Z,28.37
2018-12-15T02:18:57.622Z,28.17
2018-12-15T02:21:26.814Z,27.13
2018-12-15T02:23:55.774Z,25.80
2018-12-15T02:26:24.759Z,28.43
2018-12-15T02:28:53.790Z,21.07
2018-12-15T02:31:24.039Z,26.50
2018-12-15T02:33:53.080Z,25.53
2018-12-15T02:36:22.111Z,36.57
2018-12-15T02:38:51.137Z,23.97
2018-12-15T02:41:20.178Z,29.90
2018-12-15T02:43:49.192Z,28.53
2018-12-15T02:46:18.204Z,35.17
2018-12-15T02:48:47.227Z,29.70
2018-12-15T02:51:16.566Z,22.67
2018-12-15T02:53:45.598Z,31.03
2018-12-15T02:56:14.652Z,33.50
2018-12-15T02:58:43.731Z,33.70
2018-12-15T03:01:12.733Z,34.33
2018-12-15T03:03:41.793Z,29.63
2018-12-15T03:06:10.822Z,32.10
2018-12-15T03:08:39.904Z,23.37
2018-12-15T03:11:09.931Z,28.40
2018-12-15T03:13:39.095Z,27.87
2018-12-15T03:16:08.277Z,27.93
2018-12-15T03:18:37.639Z,30.33
2018-12-15T03:21:06.636Z,32.40
2018-12-15T03:23:35.676Z,31.23
2018-12-15T03:26:04.765Z,28.00
2018-12-15T03:28:33.788Z,28.40
2018-12-15T03:31:02.803Z,38.20
2018-12-15T03:33:31.899Z,30.37
2018-12-15T03:36:00.958Z,35.50
2018-12-15T03:38:29.966Z,29.73
2018-12-15T03:40:59.163Z,37.20
2018-12-15T03:43:28.208Z,31.00
2018-12-15T03:45:57.154Z,28.80
2018-12-15T03:48:26.201Z,32.07
2018-12-15T03:50:55.160Z,34.03
2018-12-15T03:53:24.196Z,27.90
2018-12-15T03:55:53.189Z,29.00
2018-12-15T03:58:22.219Z,25.67
2018-12-15T04:00:51.260Z,35.97
2018-12-15T04:03:20.341Z,33.73
2018-12-15T04:05:49.300Z,23.17
2018-12-15T04:08:18.341Z,36.17
2018-12-15T04:10:47.347Z,35.00
2018-12-15T04:13:16.439Z,28.70
2018-12-15T04:15:45.419Z,30.83
2018-12-15T04:18:14.713Z,27.90
2018-12-15T04:20:43.753Z,28.00
2018-12-15T04:23:12.815Z,28.37
2018-12-15T04:25:42.033Z,28.07
2018-12-15T04:28:11.135Z,27.03
2018-12-15T04:30:40.215Z,23.27
2018-12-15T04:33:09.217Z,28.43
2018-12-15T04:35:38.293Z,20.17
2018-12-15T04:38:07.401Z,33.70
2018-12-15T04:40:36.639Z,30.00
2018-12-15T04:43:05.674Z,29.57
2018-12-15T04:45:34.860Z,24.40
2018-12-15T04:48:10.839Z,26.33
2018-12-15T04:50:35.032Z,25.93
2018-12-15T04:53:04.171Z,24.57
2018-12-15T04:55:33.250Z,26.23
2018-12-15T04:58:02.265Z,22.73
2018-12-15T05:00:31.498Z,25.10
2018-12-15T05:03:00.593Z,23.30
2018-12-15T05:05:29.776Z,27.63
2018-12-15T05:07:58.812Z,25.40
2018-12-15T05:10:27.876Z,27.60
2018-12-15T05:12:56.935Z,26.43
2018-12-15T05:15:25.924Z,22.93
2018-12-15T05:17:54.959Z,22.77
2018-12-15T05:20:23.988Z,26.03
2018-12-15T05:22:53.032Z,25.67
2018-12-15T05:25:22.127Z,24.80
2018-12-15T05:27:51.201Z,20.23
2018-12-15T05:30:20.322Z,28.87
2018-12-15T05:32:49.360Z,23.13
2018-12-15T05:35:18.410Z,22.90
2018-12-15T05:37:47.450Z,23.77
2018-12-15T05:40:16.489Z,28.60
2018-12-15T05:42:45.490Z,27.00
2018-12-15T05:45:14.522Z,22.43
2018-12-15T05:47:43.654Z,22.10
2018-12-15T05:50:12.927Z,20.90
2018-12-15T05:52:41.943Z,28.20
2018-12-15T05:55:10.960Z,31.43
2018-12-15T05:57:39.989Z,22.73
2018-12-15T06:00:09.361Z,34.07
2018-12-15T06:02:38.969Z,24.10
2018-12-15T06:05:08.787Z,25.93
2018-12-15T06:07:37.772Z,24.60
2018-12-15T06:10:07.157Z,23.57
2018-12-15T06:12:36.230Z,25.23
2018-12-15T06:15:06.131Z,21.03
2018-12-15T06:17:35.146Z,27.63
2018-12-15T06:20:05.071Z,28.27
2018-12-15T06:22:34.049Z,25.93
2018-12-15T06:25:03.278Z,24.37
2018-12-15T06:27:32.400Z,24.17
2018-12-15T06:30:01.510Z,20.30
2018-12-15T06:32:31.554Z,20.70
2018-12-15T06:35:00.594Z,24.73
2018-12-15T06:37:29.566Z,23.53
2018-12-15T06:39:58.568Z,23.30
2018-12-15T06:42:28.722Z,18.87
2018-12-15T06:44:57.803Z,23.00
2018-12-15T06:47:26.787Z,19.77
2018-12-15T06:49:55.796Z,22.57
2018-12-15T06:52:24.806Z,24.93
2018-12-15T06:55:00.251Z,25.33
2018-12-15T06:57:29.342Z,21.67
2018-12-15T06:59:58.404Z,17.93
2018-12-15T07:02:27.427Z,20.60
2018-12-15T07:04:56.497Z,13.63
2018-12-15T07:07:25.558Z,25.43
2018-12-15T07:09:54.648Z,20.37
2018-12-15T07:12:23.790Z,19.90
2018-12-15T07:14:52.935Z,22.97
2018-12-15T07:17:21.990Z,20.97
2018-12-15T07:19:51.108Z,24.10
2018-12-15T07:22:20.133Z,21.80
2018-12-15T07:24:49.156Z,20.73
2018-12-15T07:27:18.170Z,18.70
2018-12-15T07:29:47.234Z,15.13
2018-12-15T07:32:16.329Z,14.83
2018-12-15T07:34:45.361Z,15.97
2018-12-15T07:37:14.314Z,21.40
2018-12-15T07:39:43.343Z,21.63
2018-12-15T07:42:12.489Z,16.27
2018-12-15T07:44:41.478Z,11.77
2018-12-15T07:47:10.563Z,24.03
2018-12-15T07:49:39.640Z,18.27
2018-12-15T07:52:08.694Z,18.23
2018-12-15T07:54:37.807Z,19.97
2018-12-15T07:57:06.822Z,16.87
2018-12-15T07:59:35.845Z,15.80
2018-12-15T08:02:04.928Z,22.20
2018-12-15T08:04:34.059Z,16.03
2018-12-15T08:07:03.325Z,16.33
2018-12-15T08:09:33.707Z,16.17
2018-12-15T08:12:08.459Z,17.33
2018-12-15T08:14:37.504Z,16.80
2018-12-15T08:17:06.525Z,14.60
2018-12-15T08:19:35.596Z,13.10
2018-12-15T08:22:04.660Z,11.90
2018-12-15T08:24:33.663Z,17.57
2018-12-15T08:27:02.719Z,13.13
2018-12-15T08:29:31.793Z,14.70
2018-12-15T08:32:00.886Z,17.57
2018-12-15T08:34:29.883Z,13.97
2018-12-15T08:36:59.105Z,13.47
2018-12-15T08:39:28.174Z,14.07
2018-12-15T08:41:57.211Z,12.53
2018-12-15T08:44:26.283Z,15.27
2018-12-15T08:46:55.333Z,11.00
2018-12-15T08:49:24.419Z,11.83
2018-12-15T08:51:53.461Z,8.77
2018-12-15T08:54:22.639Z,15.93
2018-12-15T08:56:51.706Z,13.23
2018-12-15T08:59:20.771Z,11.83
2018-12-15T09:01:49.841Z,9.17
2018-12-15T09:04:18.890Z,11.40
2018-12-15T09:06:47.988Z,9.77
2018-12-15T09:09:17.050Z,10.67
2018-12-15T09:11:46.153Z,13.73
2018-12-15T09:14:15.309Z,13.53
2018-12-15T09:16:44.435Z,14.37
2018-12-15T09:19:13.538Z,11.30
2018-12-15T09:21:42.640Z,10.27
2018-12-15T09:24:11.867Z,9.93
2018-12-15T09:26:41.707Z,13.37
2018-12-15T09:29:10.796Z,10.87
2018-12-15T09:31:42.100Z,11.27
2018-12-15T09:34:11.611Z,14.13
2018-12-15T09:36:40.832Z,15.30
2018-12-15T09:39:10.088Z,12.17
2018-12-15T09:41:39.417Z,14.50
2018-12-15T09:44:08.573Z,13.83
2018-12-15T09:46:37.950Z,13.30
2018-12-15T09:49:07.212Z,13.80
2018-12-15T09:51:36.303Z,12.47
2018-12-15T09:54:05.578Z,16.17
2018-12-15T09:56:34.777Z,14.37
2018-12-15T09:59:03.920Z,8.03
2018-12-15T10:01:33.245Z,11.53
2018-12-15T10:04:02.558Z,14.83
2018-12-15T10:06:31.624Z,13.00
2018-12-15T10:09:00.743Z,15.83
2018-12-15T10:11:31.809Z,14.27
2018-12-15T10:14:01.110Z,11.03
2018-12-15T10:16:30.498Z,15.23
2018-12-15T10:18:59.777Z,9.70
2018-12-15T10:21:29.005Z,11.43
2018-12-15T10:23:58.984Z,11.93
2018-12-15T10:26:28.014Z,12.03
2018-12-15T10:28:57.093Z,10.87
2018-12-15T10:31:31.440Z,11.33
2018-12-15T10:34:00.607Z,10.87
2018-12-15T10:36:29.873Z,9.97
2018-12-15T10:38:58.984Z,12.07
2018-12-15T10:41:28.064Z,13.50
2018-12-15T10:43:57.091Z,13.47
2018-12-15T10:46:28.131Z,10.33
2018-12-15T10:51:35.455Z,11.60
2018-12-15T10:54:04.567Z,10.17
2018-12-15T10:56:34.557Z,10.63
2018-12-15T10:59:07.069Z,10.90
2018-12-15T11:01:36.261Z,15.27
2018-12-15T11:04:05.467Z,13.07
2018-12-15T11:06:34.787Z,12.03
2018-12-15T11:09:05.963Z,15.50
2018-12-15T11:11:37.178Z,16.27
2018-12-15T11:14:07.021Z,11.47
2018-12-15T11:16:36.164Z,17.03
2018-12-15T11:19:05.381Z,13.50
2018-12-15T11:21:34.578Z,12.40
2018-12-15T11:24:03.848Z,10.37
2018-12-15T11:26:32.906Z,12.93
2018-12-15T11:29:02.127Z,12.03
2018-12-15T11:31:32.964Z,18.97
2018-12-15T11:34:02.038Z,9.20
2018-12-15T11:36:31.199Z,13.37
2018-12-15T11:39:00.227Z,15.93
2018-12-15T11:41:29.481Z,12.07
2018-12-15T11:43:58.730Z,9.23
2018-12-15T11:46:27.925Z,8.23
2018-12-15T11:48:57.022Z,13.73
2018-12-15T11:51:26.122Z,9.20
2018-12-15T11:53:55.250Z,14.87
2018-12-15T11:56:24.280Z,10.97
2018-12-15T11:58:53.515Z,12.70
2018-12-15T12:01:22.753Z,10.93
2018-12-15T12:03:51.948Z,12.33
2018-12-15T12:06:21.023Z,12.63
2018-12-15T12:08:50.336Z,11.97
2018-12-15T12:11:19.562Z,12.30
2018-12-15T12:13:48.748Z,10.10
2018-12-15T12:16:17.850Z,13.67
2018-12-15T12:18:48.280Z,15.37
2018-12-15T12:21:17.444Z,14.87
2018-12-15T12:23:46.707Z,25.80
2018-12-15T12:26:17.741Z,16.47
2018-12-15T12:28:46.842Z,16.30
2018-12-15T12:31:17.018Z,15.80
2018-12-15T12:33:46.239Z,15.87
2018-12-15T12:36:15.549Z,14.83
2018-12-15T12:38:44.694Z,15.30
2018-12-15T12:41:13.748Z,8.97
2018-12-15T12:43:42.839Z,13.97
2018-12-15T12:46:11.879Z,17.77
2018-12-15T12:48:41.092Z,21.60
2018-12-15T12:51:10.262Z,12.73
2018-12-15T12:53:39.369Z,15.73
2018-12-15T12:56:08.390Z,15.93
2018-12-15T12:58:37.559Z,13.77
2018-12-15T13:01:06.866Z,10.50
2018-12-15T13:03:35.975Z,14.17
2018-12-15T13:06:04.944Z,12.03
2018-12-15T13:08:34.262Z,19.07
2018-12-15T13:11:03.309Z,16.30
2018-12-15T13:13:33.832Z,14.43
2018-12-15T13:16:03.056Z,11.80
2018-12-15T13:18:32.191Z,15.77
2018-12-15T13:21:01.285Z,16.37
2018-12-15T13:23:30.302Z,13.13
2018-12-15T13:25:59.596Z,11.63
2018-12-15T13:28:28.880Z,7.97
2018-12-15T13:30:57.837Z,12.87
2018-12-15T13:33:34.961Z,10.20
2018-12-15T13:36:17.017Z,11.20
2018-12-15T13:38:46.319Z,9.23
2018-12-15T13:41:22.005Z,11.87
2018-12-15T13:43:51.102Z,16.77
2018-12-15T13:46:20.211Z,14.43
2018-12-15T13:48:49.222Z,10.87
2018-12-15T13:51:18.471Z,12.23
2018-12-15T13:53:47.513Z,10.23
2018-12-15T13:56:16.570Z,16.37
2018-12-15T13:58:45.634Z,13.50
2018-12-15T14:01:14.731Z,11.63
2018-12-15T14:03:43.733Z,12.03
2018-12-15T14:06:12.733Z,14.00
2018-12-15T14:08:41.761Z,12.30
2018-12-15T14:11:10.852Z,14.63
2018-12-15T14:13:39.949Z,11.37
2018-12-15T14:16:09.045Z,18.00
2018-12-15T14:18:38.172Z,14.97
2018-12-15T14:21:07.220Z,12.93
2018-12-15T14:23:36.321Z,11.47
2018-12-15T14:26:05.304Z,14.03
2018-12-15T14:28:34.337Z,15.10
2018-12-15T14:31:03.445Z,15.93
2018-12-15T14:33:32.495Z,14.30
2018-12-15T14:36:01.755Z,15.87
2018-12-15T14:38:30.931Z,17.47
2018-12-15T14:40:59.910Z,13.73
2018-12-15T14:43:28.941Z,21.23
2018-12-15T14:45:57.973Z,17.03
2018-12-15T14:48:27.069Z,17.53
2018-12-15T14:50:56.045Z,14.07
2018-12-15T14:53:25.121Z,26.17
2018-12-15T14:55:54.098Z,20.53
2018-12-15T14:58:23.203Z,21.33
2018-12-15T15:00:52.242Z,23.23
2018-12-15T15:03:21.450Z,23.03
2018-12-15T15:05:50.509Z,16.83
2018-12-15T15:08:19.591Z,24.20
2018-12-15T15:10:48.719Z,27.63
2018-12-15T15:13:17.746Z,25.30
2018-12-15T15:15:46.787Z,23.23
2018-12-15T15:18:15.888Z,23.20
2018-12-15T15:20:44.942Z,24.73
2018-12-15T15:23:14.001Z,22.07
2018-12-15T15:25:43.027Z,19.57
2018-12-15T15:28:12.106Z,22.53
2018-12-15T15:30:41.509Z,23.00
2018-12-15T15:33:10.523Z,20.00
2018-12-15T15:35:39.542Z,20.60
2018-12-15T15:38:08.924Z,27.53
2018-12-15T15:40:38.046Z,24.10
2018-12-15T15:43:07.123Z,20.23
2018-12-15T15:45:36.098Z,27.80
2018-12-15T15:48:05.240Z,21.60
2018-12-15T15:50:36.658Z,27.63
2018-12-15T15:53:05.412Z,31.47
2018-12-15T15:55:34.495Z,23.17
2018-12-15T15:58:03.613Z,27.67
2018-12-15T16:00:32.923Z,20.67
2018-12-15T16:03:02.143Z,26.50
2018-12-15T16:05:31.364Z,25.37
2018-12-15T16:08:00.369Z,31.10
2018-12-15T16:10:29.514Z,30.37
2018-12-15T16:12:58.477Z,23.00
2018-12-15T16:15:27.519Z,22.60
2018-12-15T16:17:56.606Z,23.70
2018-12-15T16:20:25.588Z,30.53
2018-12-15T16:22:54.674Z,25.43
2018-12-15T16:25:23.728Z,30.70
2018-12-15T16:27:52.838Z,19.10
2018-12-15T16:30:21.860Z,27.93
2018-12-15T16:32:50.956Z,30.80
2018-12-15T16:35:19.949Z,10.67
2018-12-15T16:37:49.032Z,25.37
2018-12-15T16:40:18.081Z,27.00
2018-12-15T16:42:47.252Z,25.67
2018-12-15T16:45:16.358Z,24.27
2018-12-15T16:47:45.380Z,22.93
2018-12-15T16:50:14.609Z,31.47
2018-12-15T16:52:44.093Z,26.00
2018-12-15T16:55:13.420Z,22.77
2018-12-15T16:57:42.512Z,21.10
2018-12-15T17:00:14.035Z,31.73
2018-12-15T17:02:44.654Z,22.33
2018-12-15T17:05:13.821Z,26.77
2018-12-15T17:07:42.817Z,19.27
2018-12-15T17:10:12.051Z,24.83
2018-12-15T17:12:42.070Z,25.83
2018-12-15T17:15:11.571Z,23.50
2018-12-15T17:17:40.621Z,22.60
2018-12-15T17:20:10.190Z,25.43
2018-12-15T17:22:39.212Z,22.73
2018-12-15T17:25:09.030Z,20.13
2018-12-15T17:27:38.296Z,29.90
2018-12-15T17:30:09.554Z,23.77
2018-12-15T17:32:39.082Z,27.83
2018-12-15T17:35:08.396Z,27.67
2018-12-15T17:37:37.523Z,23.30
2018-12-15T17:40:08.797Z,22.37
2018-12-15T17:42:38.925Z,16.40
2018-12-15T17:45:08.462Z,10.73
2018-12-15T17:47:38.573Z,23.10
2018-12-15T17:50:09.576Z,15.43
2018-12-15T17:52:40.634Z,18.07
2018-12-15T17:55:09.806Z,17.07
2018-12-15T17:57:38.886Z,18.63
2018-12-15T18:00:10.601Z,19.47
2018-12-15T18:02:40.003Z,21.50
2018-12-15T18:05:09.306Z,23.37
2018-12-15T18:07:38.352Z,16.57
2018-12-15T18:10:08.697Z,22.40
2018-12-15T18:12:37.829Z,5.50
2018-12-15T18:15:07.511Z,20.77
2018-12-15T18:17:36.573Z,14.70
2018-12-15T18:20:06.788Z,22.07
2018-12-15T18:22:35.866Z,26.43
2018-12-15T18:25:05.333Z,16.17
2018-12-15T18:27:34.688Z,20.27
2018-12-15T18:30:05.194Z,23.97
2018-12-15T18:32:34.929Z,31.10
2018-12-15T18:35:04.126Z,17.43
2018-12-15T18:37:33.290Z,16.23
2018-12-15T18:40:02.550Z,23.60
2018-12-15T18:42:31.894Z,18.40
2018-12-15T18:45:00.919Z,27.23
2018-12-15T18:47:31.300Z,30.13
2018-12-15T18:50:00.427Z,19.03
2018-12-15T18:52:29.465Z,18.90
2018-12-15T18:54:58.602Z,22.47
2018-12-15T18:57:27.717Z,24.03
2018-12-15T18:59:56.680Z,20.07
2018-12-15T19:02:25.686Z,21.13
2018-12-15T19:04:54.669Z,26.93
2018-12-15T19:07:23.670Z,24.43
2018-12-15T19:09:52.670Z,21.13
2018-12-15T19:12:21.626Z,24.30
2018-12-15T19:14:50.681Z,24.87
2018-12-15T19:17:19.676Z,30.43
2018-12-15T19:19:48.833Z,23.73
2018-12-15T19:22:17.827Z,17.83
2018-12-15T19:24:46.961Z,23.27
2018-12-15T19:27:16.221Z,25.23
2018-12-15T19:29:45.254Z,16.93
2018-12-15T19:32:14.296Z,21.57
2018-12-15T19:34:43.556Z,26.67
2018-12-15T19:37:12.647Z,25.40
2018-12-15T19:39:41.713Z,24.17
2018-12-15T19:42:10.906Z,23.13
2018-12-15T19:44:40.133Z,20.03
2018-12-15T19:47:09.319Z,19.50
2018-12-15T19:49:38.525Z,24.33
2018-12-15T19:52:07.628Z,15.97
2018-12-15T19:54:36.759Z,19.83
2018-12-15T19:57:05.985Z,22.57
2018-12-15T19:59:34.959Z,27.43
2018-12-15T20:02:04.183Z,21.37
2018-12-15T20:04:33.342Z,24.63
2018-12-15T20:07:02.435Z,33.03
2018-12-15T20:09:31.609Z,22.63
2018-12-15T20:12:00.701Z,18.80
2018-12-15T20:14:29.995Z,24.23
2018-12-15T20:16:58.989Z,20.23
2018-12-15T20:19:28.051Z,30.47
2018-12-15T20:21:57.238Z,21.43
2018-12-15T20:24:26.318Z,30.17
2018-12-15T20:26:55.373Z,30.37
2018-12-15T20:29:24.648Z,14.07
2018-12-15T20:31:53.794Z,26.00
2018-12-15T20:34:22.900Z,17.23
2018-12-15T20:36:51.874Z,8.77
2018-12-15T20:39:20.871Z,25.17
2018-12-15T20:41:49.909Z,27.57
2018-12-15T20:44:18.879Z,23.47
2018-12-15T20:46:47.920Z,25.60
2018-12-15T20:49:16.905Z,31.47
2018-12-15T20:51:45.959Z,27.77
2018-12-15T20:54:18.989Z,25.43
2018-12-15T20:56:48.052Z,30.87
2018-12-15T20:59:17.132Z,19.00
2018-12-15T21:01:46.148Z,13.30
2018-12-15T21:04:15.191Z,28.17
2018-12-15T21:06:44.209Z,18.83
2018-12-15T21:09:13.232Z,29.27
2018-12-15T21:11:42.266Z,26.67
2018-12-15T21:14:11.250Z,29.77
2018-12-15T21:16:40.312Z,22.60
2018-12-15T21:19:09.348Z,27.73
2018-12-15T21:21:38.551Z,24.43
2018-12-15T21:24:08.426Z,22.93
2018-12-15T21:26:37.379Z,26.43
2018-12-15T21:29:06.394Z,26.53
2018-12-15T21:31:35.476Z,32.30
2018-12-15T21:34:08.045Z,29.40
2018-12-15T21:36:36.248Z,31.77
2018-12-15T21:39:07.362Z,33.03
2018-12-15T21:41:38.386Z,30.77
2018-12-15T21:44:07.415Z,24.03
2018-12-15T21:46:36.437Z,36.40
2018-12-15T21:49:05.477Z,24.77
2018-12-15T21:51:34.506Z,31.23
2018-12-15T21:54:03.558Z,33.70
2018-12-15T21:56:32.641Z,27.90
2018-12-15T21:59:01.669Z,17.43
2018-12-15T22:01:30.744Z,20.40
2018-12-15T22:03:59.863Z,26.93
2018-12-15T22:06:28.827Z,25.83
2018-12-15T22:08:57.882Z,19.17
2018-12-15T22:11:26.993Z,26.60
2018-12-15T22:13:56.335Z,15.53
2018-12-15T22:16:25.317Z,22.53
2018-12-15T22:18:54.385Z,27.80
2018-12-15T22:21:23.474Z,11.97
2018-12-15T22:23:52.504Z,23.50
2018-12-15T22:26:21.662Z,15.90
2018-12-15T22:28:50.684Z,22.27
2018-12-15T22:31:19.699Z,25.07
2018-12-15T22:33:48.743Z,24.87
2018-12-15T22:36:17.802Z,9.50
2018-12-15T22:38:46.903Z,23.23
2018-12-15T22:41:16.316Z,23.90
2018-12-15T22:43:45.388Z,12.23
2018-12-15T22:46:14.387Z,27.63
2018-12-15T22:48:43.471Z,12.60
2018-12-15T22:51:12.687Z,19.43
2018-12-15T22:53:41.638Z,23.77
2018-12-15T22:56:10.590Z,19.93
2018-12-15T22:58:39.613Z,20.97
2018-12-15T23:01:11.784Z,12.20
2018-12-15T23:03:42.836Z,25.97
2018-12-15T23:06:12.046Z,20.70
2018-12-15T23:08:41.227Z,25.73
2018-12-15T23:11:10.419Z,21.90
2018-12-15T23:13:39.399Z,18.80
2018-12-15T23:16:08.427Z,13.87
2018-12-15T23:18:37.613Z,25.50
2018-12-15T23:21:06.763Z,22.87
2018-12-15T23:23:35.773Z,15.73
2018-12-15T23:26:04.936Z,16.73
2018-12-15T23:28:33.932Z,19.60
2018-12-15T23:31:03.042Z,15.80
2018-12-15T23:33:32.164Z,13.80
2018-12-15T23:36:01.352Z,20.17
2018-12-15T23:38:30.377Z,13.03
2018-12-15T23:40:59.374Z,13.57
2018-12-15T23:43:28.362Z,26.10
2018-12-15T23:45:57.429Z,27.10
2018-12-15T23:48:26.401Z,20.93
2018-12-15T23:50:55.505Z,19.20
2018-12-15T23:53:24.515Z,18.60
2018-12-15T23:55:53.617Z,22.23
2018-12-15T23:58:22.642Z,9.93
